Time;durP1;ratioP1;P1;durP2;ratioP2;P2;SDS_P1;SDS_P2;PMS_P1;PMS_P2;Temp;Humidity;BMP_temperature;BMP_pressure;BME280_temperature;BME280_humidity;BME280_pressure;Samples;Min_cycle;Max_cycle;Signal;HPM_P1;HPM_P2
2022/07/27 00:04:08;;;;;;;1.58;1.48;;;;;;;;;;12548385;28;20040;-80
2022/07/27 00:10:10;;;;;;;1.50;1.40;;;;;;;;;;12547945;28;20041;-80
2022/07/27 00:16:12;;;;;;;1.30;1.20;;;;;;;;;;12547500;28;20040;-80
2022/07/27 00:22:13;;;;;;;1.60;1.30;;;;;;;;;;12545813;28;20067;-80
2022/07/27 00:28:15;;;;;;;1.58;1.48;;;;;;;;;;12546760;28;20195;-80
2022/07/27 00:34:17;;;;;;;1.27;1.10;;;;;;;;;;12546713;28;20534;-75
2022/07/27 00:40:19;;;;;;;1.20;1.10;;;;;;;;;;12546003;28;20052;-76
2022/07/27 00:46:21;;;;;;;1.10;1.08;;;;;;;;;;12544949;28;20029;-76
2022/07/27 00:52:23;;;;;;;1.20;1.10;;;;;;;;;;12544851;28;20029;-75
2022/07/27 00:58:25;;;;;;;1.40;1.30;;;;;;;;;;12542950;28;20049;-75
2022/07/27 01:04:27;;;;;;;1.70;1.00;;;;;;;;;;12541888;28;20074;-80
2022/07/27 01:10:28;;;;;;;1.30;1.20;;;;;;;;;;12542270;28;20048;-79
2022/07/27 01:16:31;;;;;;;1.67;1.33;;;;;;;;;;12542899;28;20032;-76
2022/07/27 01:22:32;;;;;;;2.00;1.20;;;;;;;;;;12542453;28;20500;-80
2022/07/27 01:28:34;;;;;;;1.38;1.20;;;;;;;;;;12542535;28;20381;-78
2022/07/27 01:34:36;;;;;;;1.40;1.30;;;;;;;;;;12541212;28;20033;-76
2022/07/27 01:40:38;;;;;;;1.48;1.10;;;;;;;;;;12546294;28;20060;-76
2022/07/27 01:46:40;;;;;;;1.60;1.50;;;;;;;;;;12551865;28;20048;-79
2022/07/27 01:52:42;;;;;;;1.40;1.30;;;;;;;;;;12550562;28;20037;-76
2022/07/27 01:58:43;;;;;;;1.25;1.15;;;;;;;;;;12551764;28;20052;-75
2022/07/27 02:04:45;;;;;;;1.25;1.15;;;;;;;;;;12553930;28;20048;-79
2022/07/27 02:17:07;;;;;;;1.13;1.00;;;;;;;;;;12554914;28;20055;-78
2022/07/27 02:23:09;;;;;;;1.10;1.00;;;;;;;;;;12551706;28;20064;-80
2022/07/27 02:29:11;;;;;;;1.13;1.10;;;;;;;;;;12551167;28;20100;-79
2022/07/27 02:35:12;;;;;;;0.98;0.98;;;;;;;;;;12551303;28;20037;-80
2022/07/27 02:41:14;;;;;;;1.17;1.10;;;;;;;;;;12550853;28;20076;-77
2022/07/27 02:47:16;;;;;;;1.75;1.60;;;;;;;;;;12534101;28;20037;-76
2022/07/27 02:53:18;;;;;;;1.63;1.35;;;;;;;;;;12532979;28;20096;-80
2022/07/27 02:59:20;;;;;;;1.30;1.20;;;;;;;;;;12551086;28;20041;-80
2022/07/27 03:05:22;;;;;;;1.33;0.90;;;;;;;;;;12549949;28;20033;-75
2022/07/27 03:11:23;;;;;;;1.00;1.00;;;;;;;;;;12550000;28;20037;-80
2022/07/27 03:17:25;;;;;;;2.05;1.08;;;;;;;;;;12550514;28;20029;-76
2022/07/27 03:23:27;;;;;;;1.40;1.10;;;;;;;;;;12549765;28;20061;-76
2022/07/27 03:29:30;;;;;;;1.20;1.10;;;;;;;;;;12548526;28;20040;-77
2022/07/27 03:35:32;;;;;;;1.92;1.63;;;;;;;;;;12549682;28;20029;-76
2022/07/27 03:41:34;;;;;;;5.68;2.05;;;;;;;;;;12548180;28;20060;-80
2022/07/27 03:47:35;;;;;;;6.07;1.67;;;;;;;;;;12549267;28;20025;-76
2022/07/27 03:53:37;;;;;;;3.67;1.77;;;;;;;;;;12547543;28;20484;-80
2022/07/27 03:59:39;;;;;;;2.47;1.58;;;;;;;;;;12547890;28;20044;-76
2022/07/27 04:05:40;;;;;;;2.83;1.65;;;;;;;;;;12529888;28;20036;-80
2022/07/27 04:11:43;;;;;;;1.60;1.50;;;;;;;;;;12546876;28;20465;-76
2022/07/27 04:17:45;;;;;;;2.47;1.48;;;;;;;;;;12547373;28;20043;-79
2022/07/27 04:23:47;;;;;;;1.52;1.05;;;;;;;;;;12545608;28;20060;-79
2022/07/27 04:29:48;;;;;;;1.10;0.68;;;;;;;;;;12547731;28;20036;-79
2022/07/27 04:35:50;;;;;;;0.52;0.50;;;;;;;;;;12545352;28;20035;-80
2022/07/27 04:41:51;;;;;;;0.60;0.60;;;;;;;;;;12546509;28;20135;-81
2022/07/27 04:47:53;;;;;;;1.92;0.57;;;;;;;;;;12546277;28;20060;-77
2022/07/27 04:53:55;;;;;;;0.63;0.63;;;;;;;;;;12546206;28;20021;-77
2022/07/27 04:59:57;;;;;;;1.05;0.95;;;;;;;;;;12545829;28;20499;-77
2022/07/27 05:05:58;;;;;;;1.90;0.82;;;;;;;;;;12544563;28;20037;-77
2022/07/27 05:12:00;;;;;;;2.63;1.00;;;;;;;;;;12544872;28;20044;-76
2022/07/27 05:18:02;;;;;;;2.75;1.17;;;;;;;;;;12545107;28;20503;-80
2022/07/27 05:24:04;;;;;;;1.85;1.30;;;;;;;;;;12544909;28;20041;-76
2022/07/27 05:30:06;;;;;;;2.00;1.80;;;;;;;;;;12548858;28;20071;-77
2022/07/27 05:36:08;;;;;;;3.67;2.45;;;;;;;;;;12546751;28;20025;-76
2022/07/27 05:42:09;;;;;;;;;;;;;;;;;;12545426;28;20057;-79
2022/07/27 05:48:11;;;;;;;2.53;2.03;;;;;;;;;;12550491;28;19913;-76
2022/07/27 05:54:13;;;;;;;2.20;2.08;;;;;;;;;;12544537;28;20036;-76
2022/07/27 06:00:15;;;;;;;;;;;;;;;;;;12546810;28;20037;-81
2022/07/27 06:12:40;;;;;;;4.00;2.60;;;;;;;;;;12546926;28;20049;-80
2022/07/27 06:18:42;;;;;;;3.40;2.13;;;;;;;;;;12544532;28;20033;-80
2022/07/27 06:24:44;;;;;;;;;;;;;;;;;;12547045;28;20051;-81
2022/07/27 06:30:48;;;;;;;4.17;1.97;;;;;;;;;;12551725;28;19932;-76
2022/07/27 06:36:51;;;;;;;1.55;1.45;;;;;;;;;;12550920;28;20041;-76
2022/07/27 06:42:53;;;;;;;2.85;1.67;;;;;;;;;;12552054;28;20061;-76
2022/07/27 06:48:55;;;;;;;1.88;1.70;;;;;;;;;;12554668;28;20020;-78
2022/07/27 06:54:57;;;;;;;2.53;2.15;;;;;;;;;;12552441;28;20033;-76
2022/07/27 07:01:00;;;;;;;2.05;1.75;;;;;;;;;;12551018;28;20041;-79
2022/07/27 07:07:02;;;;;;;3.08;1.73;;;;;;;;;;12561921;28;20037;-79
2022/07/27 07:13:05;;;;;;;2.28;1.40;;;;;;;;;;12551486;28;20045;-80
2022/07/27 07:19:07;;;;;;;1.83;1.55;;;;;;;;;;12552628;28;20460;-80
2022/07/27 07:25:08;;;;;;;1.70;1.60;;;;;;;;;;12553688;28;20036;-80
2022/07/27 07:31:10;;;;;;;2.00;1.38;;;;;;;;;;12548301;28;20033;-80
2022/07/27 07:37:12;;;;;;;1.80;1.48;;;;;;;;;;12547540;28;20036;-77
2022/07/27 07:43:14;;;;;;;1.40;1.30;;;;;;;;;;12548837;28;20053;-77
2022/07/27 07:49:15;;;;;;;1.98;1.23;;;;;;;;;;12531345;28;20043;-80
2022/07/27 07:55:25;;;;;;;1.35;1.10;;;;;;;;;;12544822;28;20036;-77
2022/07/27 08:01:27;;;;;;;1.33;1.23;;;;;;;;;;12549331;28;20041;-80
2022/07/27 08:07:28;;;;;;;1.88;1.60;;;;;;;;;;12549874;28;20033;-76
2022/07/27 08:13:30;;;;;;;1.70;1.60;;;;;;;;;;12548533;28;20123;-81
2022/07/27 08:19:33;;;;;;;2.70;1.50;;;;;;;;;;12548490;28;20044;-76
2022/07/27 08:25:35;;;;;;;1.52;1.05;;;;;;;;;;12545870;28;20041;-80
2022/07/27 08:31:37;;;;;;;1.80;1.40;;;;;;;;;;12549207;28;20037;-79
2022/07/27 08:37:38;;;;;;;1.25;1.15;;;;;;;;;;12546126;28;20033;-75
2022/07/27 08:43:42;;;;;;;3.35;1.90;;;;;;;;;;12550684;28;20057;-79
2022/07/27 08:49:44;;;;;;;2.45;1.30;;;;;;;;;;12545277;28;20400;-76
2022/07/27 08:55:46;;;;;;;1.60;1.50;;;;;;;;;;12548899;28;20044;-79
2022/07/27 09:01:49;;;;;;;1.83;1.50;;;;;;;;;;12544284;28;20068;-79
2022/07/27 09:07:50;;;;;;;1.90;1.60;;;;;;;;;;12546922;28;20040;-79
2022/07/27 09:14:00;;;;;;;2.17;1.48;;;;;;;;;;12546304;28;20032;-75
2022/07/27 09:20:07;;;;;;;1.77;1.25;;;;;;;;;;12546709;28;20053;-79
2022/07/27 09:26:13;;;;;;;2.40;2.20;;;;;;;;;;12547382;28;20044;-76
2022/07/27 09:32:16;;;;;;;2.03;1.80;;;;;;;;;;12544639;28;20048;-79
2022/07/27 09:38:22;;;;;;;2.35;1.98;;;;;;;;;;12544973;28;20044;-75
2022/07/27 09:44:33;;;;;;;2.40;2.20;;;;;;;;;;12544609;28;20146;-75
2022/07/27 09:50:35;;;;;;;2.08;1.88;;;;;;;;;;12544015;28;20480;-80
2022/07/27 09:56:36;;;;;;;1.65;1.55;;;;;;;;;;12543894;28;20044;-76
2022/07/27 10:02:39;;;;;;;2.97;1.90;;;;;;;;;;12551213;28;20393;-76
2022/07/27 10:08:42;;;;;;;2.38;2.05;;;;;;;;;;12553353;28;20037;-80
2022/07/27 10:14:44;;;;;;;1.98;1.73;;;;;;;;;;12551804;28;20041;-76
2022/07/27 10:20:46;;;;;;;2.28;2.00;;;;;;;;;;12552852;28;20048;-77
2022/07/27 10:26:48;;;;;;;2.83;1.70;;;;;;;;;;12551609;28;20052;-77
2022/07/27 10:32:49;;;;;;;2.38;1.77;;;;;;;;;;12550737;28;20048;-80
2022/07/27 10:38:54;;;;;;;2.63;2.00;;;;;;;;;;12550796;28;20238;-79
2022/07/27 10:45:07;;;;;;;1.70;1.58;;;;;;;;;;12550857;28;20432;-77
2022/07/27 10:51:09;;;;;;;1.70;1.55;;;;;;;;;;12551352;28;20040;-79
2022/07/27 10:57:13;;;;;;;1.80;1.70;;;;;;;;;;12549914;28;20048;-79
2022/07/27 11:03:49;;;;;;;1.80;1.50;;;;;;;;;;12549579;28;20037;-77
2022/07/27 11:09:52;;;;;;;3.00;1.42;;;;;;;;;;12545970;28;20041;-76
2022/07/27 11:15:55;;;;;;;2.22;2.03;;;;;;;;;;12549579;28;20033;-79
2022/07/27 11:21:57;;;;;;;2.20;1.70;;;;;;;;;;12549172;28;20049;-76
2022/07/27 11:28:06;;;;;;;1.83;1.40;;;;;;;;;;12549703;28;20722;-79
2022/07/27 11:34:08;;;;;;;1.88;1.77;;;;;;;;;;12550745;28;20040;-76
2022/07/27 11:40:10;;;;;;;2.55;1.48;;;;;;;;;;12549533;28;20060;-79
2022/07/27 11:46:18;;;;;;;1.50;1.40;;;;;;;;;;12549386;28;20037;-76
2022/07/27 11:52:19;;;;;;;1.60;1.23;;;;;;;;;;12550619;28;20068;-76
2022/07/27 11:58:21;;;;;;;1.60;1.50;;;;;;;;;;12547411;28;20503;-77
2022/07/27 12:04:23;;;;;;;2.50;1.60;;;;;;;;;;12547741;28;20041;-79
2022/07/27 12:10:25;;;;;;;1.58;1.30;;;;;;;;;;12550255;28;20035;-78
2022/07/27 12:16:27;;;;;;;1.40;1.30;;;;;;;;;;12546405;28;20475;-80
2022/07/27 12:22:33;;;;;;;1.52;1.30;;;;;;;;;;12530133;28;20590;-77
2022/07/27 12:28:35;;;;;;;1.63;1.50;;;;;;;;;;12548318;28;20045;-79
2022/07/27 12:34:37;;;;;;;1.65;1.55;;;;;;;;;;12549431;28;20025;-76
2022/07/27 12:40:54;;;;;;;1.38;1.20;;;;;;;;;;12545234;28;20378;-80
2022/07/27 12:47:39;;;;;;;1.35;1.27;;;;;;;;;;12548959;28;20045;-80
2022/07/27 12:53:21;;;;;;;1.67;1.38;;;;;;;;;;12543971;28;20396;-76
2022/07/27 12:59:23;;;;;;;1.42;1.20;;;;;;;;;;12545792;28;20420;-77
2022/07/27 13:05:24;;;;;;;1.50;1.40;;;;;;;;;;12547132;28;20029;-79
2022/07/27 13:11:26;;;;;;;2.17;1.85;;;;;;;;;;12545799;28;20044;-80
2022/07/27 13:17:28;;;;;;;2.30;1.70;;;;;;;;;;12544426;28;20029;-80
2022/07/27 13:23:29;;;;;;;1.75;1.65;;;;;;;;;;12544760;28;20407;-76
2022/07/27 13:29:31;;;;;;;1.88;1.67;;;;;;;;;;12544893;28;20054;-79
2022/07/27 13:35:33;;;;;;;1.80;1.58;;;;;;;;;;12547306;28;20029;-76
2022/07/27 13:41:35;;;;;;;1.40;1.30;;;;;;;;;;12553771;28;20053;-79
2022/07/27 13:47:37;;;;;;;1.50;1.10;;;;;;;;;;12553465;28;20485;-80
2022/07/27 13:53:39;;;;;;;1.05;0.98;;;;;;;;;;12553973;28;20048;-76
2022/07/27 13:59:41;;;;;;;2.13;1.20;;;;;;;;;;12554280;28;20045;-76
2022/07/27 14:05:42;;;;;;;1.17;1.15;;;;;;;;;;12554385;28;20040;-76
2022/07/27 14:11:44;;;;;;;1.75;1.15;;;;;;;;;;12554198;28;20036;-80
2022/07/27 14:17:46;;;;;;;1.17;1.00;;;;;;;;;;12553504;28;20040;-76
2022/07/27 14:23:48;;;;;;;1.58;1.48;;;;;;;;;;12553912;28;20041;-79
2022/07/27 14:29:49;;;;;;;2.72;1.42;;;;;;;;;;12551412;28;20083;-76
2022/07/27 14:35:51;;;;;;;2.22;1.42;;;;;;;;;;12552244;28;20036;-76
2022/07/27 14:41:53;;;;;;;1.27;1.17;;;;;;;;;;12552941;28;20053;-79
2022/07/27 14:47:56;;;;;;;2.03;1.38;;;;;;;;;;12551815;28;20040;-76
2022/07/27 14:53:57;;;;;;;1.58;1.48;;;;;;;;;;12551607;28;20071;-76
2022/07/27 14:59:59;;;;;;;1.27;1.17;;;;;;;;;;12549901;28;20047;-80
2022/07/27 15:06:01;;;;;;;1.10;1.00;;;;;;;;;;12549706;28;20041;-79
2022/07/27 15:12:03;;;;;;;3.50;1.52;;;;;;;;;;12550346;28;20453;-79
2022/07/27 15:18:06;;;;;;;1.67;0.98;;;;;;;;;;12550208;28;20045;-79
2022/07/27 15:24:08;;;;;;;1.30;1.20;;;;;;;;;;12549813;28;20041;-79
2022/07/27 15:30:10;;;;;;;1.58;1.15;;;;;;;;;;12549952;28;20037;-76
2022/07/27 15:36:11;;;;;;;1.00;0.90;;;;;;;;;;12549233;28;20040;-76
2022/07/27 15:42:13;;;;;;;0.82;0.82;;;;;;;;;;12547975;28;20053;-79
2022/07/27 15:48:16;;;;;;;1.40;0.90;;;;;;;;;;12548454;28;20033;-76
2022/07/27 15:54:18;;;;;;;1.95;1.10;;;;;;;;;;12548352;28;20036;-80
2022/07/27 16:00:20;;;;;;;1.00;0.90;;;;;;;;;;12547512;28;20056;-79
2022/07/27 16:06:22;;;;;;;1.13;1.10;;;;;;;;;;12547653;28;20509;-79
2022/07/27 16:12:24;;;;;;;1.33;1.23;;;;;;;;;;12546900;28;20040;-75
2022/07/27 16:18:26;;;;;;;0.82;0.82;;;;;;;;;;12546231;28;20508;-77
2022/07/27 16:24:28;;;;;;;1.10;1.00;;;;;;;;;;12546541;28;20055;-77
2022/07/27 16:30:29;;;;;;;0.70;0.70;;;;;;;;;;12546085;28;20048;-80
2022/07/27 16:36:31;;;;;;;1.20;0.90;;;;;;;;;;12549164;28;20033;-77
2022/07/27 16:42:33;;;;;;;0.95;0.90;;;;;;;;;;12549976;28;20477;-80
2022/07/27 16:48:35;;;;;;;1.80;1.00;;;;;;;;;;12548437;28;20520;-77
2022/07/27 16:54:37;;;;;;;0.85;0.80;;;;;;;;;;12544646;28;20032;-77
2022/07/27 17:00:38;;;;;;;1.15;1.00;;;;;;;;;;12545188;28;20040;-80
2022/07/27 17:06:40;;;;;;;1.17;1.10;;;;;;;;;;12543531;28;20400;-77
2022/07/27 17:12:42;;;;;;;1.30;1.20;;;;;;;;;;12544934;28;20079;-77
2022/07/27 17:18:43;;;;;;;2.67;1.02;;;;;;;;;;12544863;28;20036;-77
2022/07/27 17:24:45;;;;;;;1.38;1.20;;;;;;;;;;12543898;28;20049;-77
2022/07/27 17:30:47;;;;;;;1.50;1.25;;;;;;;;;;12543781;28;20392;-80
2022/07/27 17:36:51;;;;;;;1.08;1.00;;;;;;;;;;12543901;28;20504;-81
2022/07/27 17:42:53;;;;;;;1.25;1.15;;;;;;;;;;12544503;28;20049;-81
2022/07/27 17:48:55;;;;;;;0.88;0.85;;;;;;;;;;12543281;28;20037;-77
2022/07/27 17:54:56;;;;;;;1.25;1.10;;;;;;;;;;12543396;28;20037;-76
2022/07/27 18:00:58;;;;;;;1.35;1.20;;;;;;;;;;12542811;28;20045;-81
2022/07/27 18:07:00;;;;;;;2.88;1.25;;;;;;;;;;12542883;28;20037;-77
2022/07/27 18:13:03;;;;;;;1.38;1.10;;;;;;;;;;12544874;28;20388;-79
2022/07/27 18:19:05;;;;;;;1.52;1.15;;;;;;;;;;12544487;28;20037;-77
2022/07/27 18:25:07;;;;;;;1.40;1.25;;;;;;;;;;12551528;28;20052;-77
2022/07/27 18:31:13;;;;;;;1.75;1.20;;;;;;;;;;12551379;28;20484;-77
2022/07/27 18:37:15;;;;;;;1.55;1.10;;;;;;;;;;12552165;28;20032;-80
2022/07/27 18:43:17;;;;;;;1.27;1.17;;;;;;;;;;12550962;28;20053;-81
2022/07/27 18:49:19;;;;;;;1.92;1.40;;;;;;;;;;12551656;28;20033;-80
2022/07/27 18:55:21;;;;;;;1.60;1.50;;;;;;;;;;12549832;28;20029;-80
2022/07/27 19:01:23;;;;;;;1.25;1.15;;;;;;;;;;12551200;28;20400;-76
2022/07/27 19:07:25;;;;;;;1.40;1.30;;;;;;;;;;12550990;28;20029;-77
2022/07/27 19:13:27;;;;;;;1.77;1.25;;;;;;;;;;12549639;28;20036;-81
2022/07/27 19:19:29;;;;;;;1.20;1.10;;;;;;;;;;12548883;28;20487;-81
2022/07/27 19:25:32;;;;;;;1.80;1.40;;;;;;;;;;12548857;28;20404;-81
2022/07/27 19:31:35;;;;;;;1.30;1.20;;;;;;;;;;12548051;28;20029;-77
2022/07/27 19:37:38;;;;;;;1.48;1.27;;;;;;;;;;12549612;28;20033;-77
2022/07/27 19:43:39;;;;;;;2.08;1.20;;;;;;;;;;12547725;28;20064;-81
2022/07/27 19:49:41;;;;;;;1.55;1.38;;;;;;;;;;12547641;28;20511;-81
2022/07/27 19:55:43;;;;;;;1.30;1.20;;;;;;;;;;12547538;28;20033;-81
2022/07/27 20:01:45;;;;;;;1.45;1.20;;;;;;;;;;12546981;28;20041;-78
2022/07/27 20:07:47;;;;;;;1.48;0.95;;;;;;;;;;12548319;28;20481;-77
2022/07/27 20:13:48;;;;;;;1.00;1.00;;;;;;;;;;12546905;28;20033;-81
2022/07/27 20:19:50;;;;;;;1.77;1.20;;;;;;;;;;12546322;28;20040;-80
2022/07/27 20:25:52;;;;;;;1.40;1.25;;;;;;;;;;12546942;28;20036;-80
2022/07/27 20:31:54;;;;;;;1.70;1.60;;;;;;;;;;12529250;28;20499;-80
2022/07/27 20:37:56;;;;;;;1.67;1.52;;;;;;;;;;12545787;28;20511;-76
2022/07/27 20:43:58;;;;;;;1.60;1.50;;;;;;;;;;12546460;28;20045;-79
2022/07/27 20:49:59;;;;;;;1.90;1.77;;;;;;;;;;12545011;28;20033;-76
2022/07/27 20:56:01;;;;;;;1.80;1.70;;;;;;;;;;12545174;28;20033;-76
2022/07/27 21:02:03;;;;;;;2.08;1.58;;;;;;;;;;12544846;28;20044;-80
2022/07/27 21:08:04;;;;;;;2.30;1.48;;;;;;;;;;12544900;28;20044;-76
2022/07/27 21:14:08;;;;;;;1.92;1.80;;;;;;;;;;12546836;28;20040;-77
2022/07/27 21:20:10;;;;;;;1.90;1.65;;;;;;;;;;12545467;28;20450;-76
2022/07/27 21:26:12;;;;;;;1.52;1.42;;;;;;;;;;12543984;28;20477;-80
2022/07/27 21:32:13;;;;;;;1.35;1.25;;;;;;;;;;12544171;28;20036;-76
2022/07/27 21:38:15;;;;;;;2.25;1.90;;;;;;;;;;12546269;28;20032;-76
2022/07/27 21:44:17;;;;;;;1.88;0.98;;;;;;;;;;12543434;28;20056;-81
2022/07/27 21:50:19;;;;;;;1.38;1.27;;;;;;;;;;12544633;28;20037;-76
2022/07/27 21:56:20;;;;;;;1.23;1.08;;;;;;;;;;12546322;28;20393;-80
2022/07/27 22:02:22;;;;;;;2.17;1.75;;;;;;;;;;12537217;28;20056;-81
2022/07/27 22:08:24;;;;;;;2.67;1.75;;;;;;;;;;12553848;28;20037;-76
2022/07/27 22:14:25;;;;;;;1.60;1.50;;;;;;;;;;12554807;28;20033;-80
2022/07/27 22:20:27;;;;;;;2.65;1.77;;;;;;;;;;12552620;28;20408;-80
2022/07/27 22:26:29;;;;;;;2.45;2.22;;;;;;;;;;12552370;28;20401;-77
2022/07/27 22:32:31;;;;;;;1.55;1.42;;;;;;;;;;12550236;28;20362;-80
2022/07/27 22:38:32;;;;;;;2.38;2.17;;;;;;;;;;12533047;28;20033;-80
2022/07/27 22:44:36;;;;;;;2.53;2.33;;;;;;;;;;12549017;28;20056;-81
2022/07/27 22:50:38;;;;;;;2.20;2.10;;;;;;;;;;12549696;28;20036;-76
2022/07/27 22:56:39;;;;;;;2.50;2.03;;;;;;;;;;12549656;28;20025;-81
2022/07/27 23:02:41;;;;;;;2.17;2.03;;;;;;;;;;12550112;28;20060;-76
2022/07/27 23:08:43;;;;;;;2.38;2.20;;;;;;;;;;12548309;28;20036;-75
2022/07/27 23:14:45;;;;;;;3.00;2.17;;;;;;;;;;12548928;28;20370;-76
2022/07/27 23:20:46;;;;;;;1.77;1.67;;;;;;;;;;12548365;28;20400;-77
2022/07/27 23:26:48;;;;;;;2.42;2.22;;;;;;;;;;12549645;28;20037;-81
2022/07/27 23:32:50;;;;;;;2.35;2.05;;;;;;;;;;12548945;28;20033;-81
2022/07/27 23:38:52;;;;;;;1.85;1.75;;;;;;;;;;12548981;28;20039;-82
2022/07/27 23:44:53;;;;;;;3.50;1.83;;;;;;;;;;12547595;28;20404;-81
2022/07/27 23:50:55;;;;;;;1.80;1.55;;;;;;;;;;12548013;28;20033;-77
2022/07/27 23:56:57;;;;;;;1.55;1.45;;;;;;;;;;12552387;28;20036;-81
